sensor_id;sensor_type;location;lat;lon;timestamp;temperature;humidity
16980;DHT22;42288;52.182;21.156;2023-08-01T00:02:11;19.30;99.90
16980;DHT22;42288;52.182;21.156;2023-08-01T00:04:36;19.30;99.90
16980;DHT22;42288;52.182;21.156;2023-08-01T00:07:02;19.30;99.90
16980;DHT22;42288;52.182;21.156;2023-08-01T00:09:27;19.30;99.90
16980;DHT22;42288;52.182;21.156;2023-08-01T00:11:53;19.30;99.90
16980;DHT22;42288;52.182;21.156;2023-08-01T00:14:20;19.30;99.90
16980;DHT22;42288;52.182;21.156;2023-08-01T00:16:45;19.20;99.90
16980;DHT22;42288;52.182;21.156;2023-08-01T00:19:11;19.30;99.90
16980;DHT22;42288;52.182;21.156;2023-08-01T00:21:38;19.30;99.90
16980;DHT22;42288;52.182;21.156;2023-08-01T00:24:03;19.30;99.90
16980;DHT22;42288;52.182;21.156;2023-08-01T00:26:30;19.30;99.90
16980;DHT22;42288;52.182;21.156;2023-08-01T00:28:56;19.30;99.90
16980;DHT22;42288;52.182;21.156;2023-08-01T00:31:21;19.30;99.90
16980;DHT22;42288;52.182;21.156;2023-08-01T00:33:47;19.30;99.90
16980;DHT22;42288;52.182;21.156;2023-08-01T00:36:13;19.20;99.90
16980;DHT22;42288;52.182;21.156;2023-08-01T00:38:38;19.20;99.90
16980;DHT22;42288;52.182;21.156;2023-08-01T00:41:04;19.20;99.90
16980;DHT22;42288;52.182;21.156;2023-08-01T00:43:29;19.20;99.90
16980;DHT22;42288;52.182;21.156;2023-08-01T00:45:59;19.20;99.90
16980;DHT22;42288;52.182;21.156;2023-08-01T00:48:25;19.10;99.90
16980;DHT22;42288;52.182;21.156;2023-08-01T00:50:51;19.10;99.90
16980;DHT22;42288;52.182;21.156;2023-08-01T00:53:18;19.10;99.90
16980;DHT22;42288;52.182;21.156;2023-08-01T00:55:43;19.10;99.90
16980;DHT22;42288;52.182;21.156;2023-08-01T00:58:10;19.10;99.90
16980;DHT22;42288;52.182;21.156;2023-08-01T01:00:35;19.00;99.90
16980;DHT22;42288;52.182;21.156;2023-08-01T01:03:01;19.00;99.90
16980;DHT22;42288;52.182;21.156;2023-08-01T01:05:31;19.00;99.90
16980;DHT22;42288;52.182;21.156;2023-08-01T01:07:59;19.10;99.90
16980;DHT22;42288;52.182;21.156;2023-08-01T01:10:24;19.00;99.90
16980;DHT22;42288;52.182;21.156;2023-08-01T01:12:50;19.10;99.90
16980;DHT22;42288;52.182;21.156;2023-08-01T01:15:15;19.10;99.90
16980;DHT22;42288;52.182;21.156;2023-08-01T01:17:41;19.00;99.90
16980;DHT22;42288;52.182;21.156;2023-08-01T01:20:07;19.00;99.90
16980;DHT22;42288;52.182;21.156;2023-08-01T01:22:33;19.00;99.90
16980;DHT22;42288;52.182;21.156;2023-08-01T01:25:00;19.00;99.90
16980;DHT22;42288;52.182;21.156;2023-08-01T01:27:27;19.00;99.90
16980;DHT22;42288;52.182;21.156;2023-08-01T01:29:54;18.90;99.90
16980;DHT22;42288;52.182;21.156;2023-08-01T01:32:21;18.90;99.90
16980;DHT22;42288;52.182;21.156;2023-08-01T01:34:47;18.90;99.90
16980;DHT22;42288;52.182;21.156;2023-08-01T01:37:13;18.90;99.90
16980;DHT22;42288;52.182;21.156;2023-08-01T01:39:38;18.90;99.90
16980;DHT22;42288;52.182;21.156;2023-08-01T01:42:04;18.90;99.90
16980;DHT22;42288;52.182;21.156;2023-08-01T01:44:30;18.90;99.90
16980;DHT22;42288;52.182;21.156;2023-08-01T01:46:55;19.00;99.90
16980;DHT22;42288;52.182;21.156;2023-08-01T01:49:21;19.00;99.90
16980;DHT22;42288;52.182;21.156;2023-08-01T01:51:46;19.00;99.90
16980;DHT22;42288;52.182;21.156;2023-08-01T01:54:12;19.00;99.90
16980;DHT22;42288;52.182;21.156;2023-08-01T01:56:38;19.00;99.90
16980;DHT22;42288;52.182;21.156;2023-08-01T01:59:03;19.00;99.90
16980;DHT22;42288;52.182;21.156;2023-08-01T02:01:29;18.90;99.90
16980;DHT22;42288;52.182;21.156;2023-08-01T02:03:54;18.90;99.90
16980;DHT22;42288;52.182;21.156;2023-08-01T02:06:20;18.90;99.90
16980;DHT22;42288;52.182;21.156;2023-08-01T02:08:45;18.80;99.90
16980;DHT22;42288;52.182;21.156;2023-08-01T02:11:11;18.70;99.90
16980;DHT22;42288;52.182;21.156;2023-08-01T02:13:37;18.80;99.90
16980;DHT22;42288;52.182;21.156;2023-08-01T02:16:02;18.70;99.90
16980;DHT22;42288;52.182;21.156;2023-08-01T02:18:28;18.70;99.90
16980;DHT22;42288;52.182;21.156;2023-08-01T02:20:53;18.70;99.90
16980;DHT22;42288;52.182;21.156;2023-08-01T02:23:19;18.70;99.90
16980;DHT22;42288;52.182;21.156;2023-08-01T02:25:44;18.70;99.90
16980;DHT22;42288;52.182;21.156;2023-08-01T02:28:10;18.70;99.90
16980;DHT22;42288;52.182;21.156;2023-08-01T02:30:36;18.70;99.90
16980;DHT22;42288;52.182;21.156;2023-08-01T02:33:02;18.70;99.90
16980;DHT22;42288;52.182;21.156;2023-08-01T02:35:28;18.70;99.90
16980;DHT22;42288;52.182;21.156;2023-08-01T02:37:54;18.60;99.90
16980;DHT22;42288;52.182;21.156;2023-08-01T02:40:20;18.60;99.90
16980;DHT22;42288;52.182;21.156;2023-08-01T02:42:45;18.60;99.90
16980;DHT22;42288;52.182;21.156;2023-08-01T02:45:11;18.60;99.90
16980;DHT22;42288;52.182;21.156;2023-08-01T02:47:37;18.60;99.90
16980;DHT22;42288;52.182;21.156;2023-08-01T02:50:02;18.60;99.90
16980;DHT22;42288;52.182;21.156;2023-08-01T02:52:28;18.50;99.90
16980;DHT22;42288;52.182;21.156;2023-08-01T02:54:53;18.50;99.90
16980;DHT22;42288;52.182;21.156;2023-08-01T02:57:19;18.50;99.90
16980;DHT22;42288;52.182;21.156;2023-08-01T02:59:45;18.50;99.90
16980;DHT22;42288;52.182;21.156;2023-08-01T03:02:10;18.50;99.90
16980;DHT22;42288;52.182;21.156;2023-08-01T03:04:36;18.50;99.90
16980;DHT22;42288;52.182;21.156;2023-08-01T03:07:01;18.40;99.90
16980;DHT22;42288;52.182;21.156;2023-08-01T03:09:27;18.50;99.90
16980;DHT22;42288;52.182;21.156;2023-08-01T03:11:53;18.40;99.90
16980;DHT22;42288;52.182;21.156;2023-08-01T03:14:18;18.40;99.90
16980;DHT22;42288;52.182;21.156;2023-08-01T03:16:44;18.30;99.90
16980;DHT22;42288;52.182;21.156;2023-08-01T03:19:09;18.30;99.90
16980;DHT22;42288;52.182;21.156;2023-08-01T03:21:35;18.40;99.90
16980;DHT22;42288;52.182;21.156;2023-08-01T03:24:02;18.40;99.90
16980;DHT22;42288;52.182;21.156;2023-08-01T03:26:28;18.40;99.90
16980;DHT22;42288;52.182;21.156;2023-08-01T03:28:54;18.30;99.90
16980;DHT22;42288;52.182;21.156;2023-08-01T03:31:21;18.30;99.90
16980;DHT22;42288;52.182;21.156;2023-08-01T03:33:47;18.30;99.90
16980;DHT22;42288;52.182;21.156;2023-08-01T03:36:14;18.30;99.90
16980;DHT22;42288;52.182;21.156;2023-08-01T03:38:40;18.30;99.90
16980;DHT22;42288;52.182;21.156;2023-08-01T03:41:05;18.30;99.90
16980;DHT22;42288;52.182;21.156;2023-08-01T03:43:31;18.30;99.90
16980;DHT22;42288;52.182;21.156;2023-08-01T03:45:57;18.30;99.90
16980;DHT22;42288;52.182;21.156;2023-08-01T03:48:22;18.30;99.90
16980;DHT22;42288;52.182;21.156;2023-08-01T03:50:48;18.30;99.90
16980;DHT22;42288;52.182;21.156;2023-08-01T03:53:13;18.30;99.90
16980;DHT22;42288;52.182;21.156;2023-08-01T03:55:39;18.30;99.90
16980;DHT22;42288;52.182;21.156;2023-08-01T03:58:05;18.30;99.90
16980;DHT22;42288;52.182;21.156;2023-08-01T04:00:30;18.40;99.90
16980;DHT22;42288;52.182;21.156;2023-08-01T04:02:58;18.40;99.90
16980;DHT22;42288;52.182;21.156;2023-08-01T04:05:24;18.40;99.90
16980;DHT22;42288;52.182;21.156;2023-08-01T04:07:50;18.40;99.90
16980;DHT22;42288;52.182;21.156;2023-08-01T04:10:15;18.50;99.90
16980;DHT22;42288;52.182;21.156;2023-08-01T04:12:41;18.50;99.90
16980;DHT22;42288;52.182;21.156;2023-08-01T04:15:08;18.50;99.90
16980;DHT22;42288;52.182;21.156;2023-08-01T04:17:34;18.40;99.90
16980;DHT22;42288;52.182;21.156;2023-08-01T04:20:00;18.50;99.90
16980;DHT22;42288;52.182;21.156;2023-08-01T04:22:25;18.40;99.90
16980;DHT22;42288;52.182;21.156;2023-08-01T04:24:51;18.50;99.90
16980;DHT22;42288;52.182;21.156;2023-08-01T04:27:17;18.60;99.90
16980;DHT22;42288;52.182;21.156;2023-08-01T04:29:42;18.50;99.90
16980;DHT22;42288;52.182;21.156;2023-08-01T04:32:08;18.60;99.90
16980;DHT22;42288;52.182;21.156;2023-08-01T04:34:34;18.60;99.90
16980;DHT22;42288;52.182;21.156;2023-08-01T04:36:59;18.60;99.90
16980;DHT22;42288;52.182;21.156;2023-08-01T04:39:25;18.60;99.90
16980;DHT22;42288;52.182;21.156;2023-08-01T04:41:50;18.60;99.90
16980;DHT22;42288;52.182;21.156;2023-08-01T04:44:16;18.60;99.90
16980;DHT22;42288;52.182;21.156;2023-08-01T04:46:41;18.60;99.90
16980;DHT22;42288;52.182;21.156;2023-08-01T04:49:07;18.60;99.90
16980;DHT22;42288;52.182;21.156;2023-08-01T04:51:33;18.60;99.90
16980;DHT22;42288;52.182;21.156;2023-08-01T04:53:58;18.60;99.90
16980;DHT22;42288;52.182;21.156;2023-08-01T04:56:24;18.60;99.90
16980;DHT22;42288;52.182;21.156;2023-08-01T04:58:50;18.70;99.90
16980;DHT22;42288;52.182;21.156;2023-08-01T05:01:15;18.70;99.90
16980;DHT22;42288;52.182;21.156;2023-08-01T05:03:41;18.90;99.90
16980;DHT22;42288;52.182;21.156;2023-08-01T05:06:06;19.10;99.90
16980;DHT22;42288;52.182;21.156;2023-08-01T05:08:32;19.10;99.90
16980;DHT22;42288;52.182;21.156;2023-08-01T05:10:58;19.10;99.90
16980;DHT22;42288;52.182;21.156;2023-08-01T05:13:23;19.10;99.90
16980;DHT22;42288;52.182;21.156;2023-08-01T05:15:49;19.20;99.90
16980;DHT22;42288;52.182;21.156;2023-08-01T05:18:16;19.20;99.90
16980;DHT22;42288;52.182;21.156;2023-08-01T05:20:42;19.30;99.90
16980;DHT22;42288;52.182;21.156;2023-08-01T05:23:07;19.40;99.90
16980;DHT22;42288;52.182;21.156;2023-08-01T05:25:33;19.50;99.90
16980;DHT22;42288;52.182;21.156;2023-08-01T05:27:59;19.50;99.90
16980;DHT22;42288;52.182;21.156;2023-08-01T05:30:25;19.70;99.90
16980;DHT22;42288;52.182;21.156;2023-08-01T05:32:50;19.90;99.90
16980;DHT22;42288;52.182;21.156;2023-08-01T05:35:17;20.00;99.90
16980;DHT22;42288;52.182;21.156;2023-08-01T05:37:43;20.10;99.90
16980;DHT22;42288;52.182;21.156;2023-08-01T05:40:09;20.20;99.90
16980;DHT22;42288;52.182;21.156;2023-08-01T05:42:34;20.20;99.90
16980;DHT22;42288;52.182;21.156;2023-08-01T05:45:00;20.10;99.90
16980;DHT22;42288;52.182;21.156;2023-08-01T05:47:26;20.20;99.90
16980;DHT22;42288;52.182;21.156;2023-08-01T05:49:51;20.20;99.90
16980;DHT22;42288;52.182;21.156;2023-08-01T05:52:17;20.20;99.90
16980;DHT22;42288;52.182;21.156;2023-08-01T05:54:43;20.10;99.90
16980;DHT22;42288;52.182;21.156;2023-08-01T05:57:08;20.20;99.90
16980;DHT22;42288;52.182;21.156;2023-08-01T05:59:34;20.30;99.90
16980;DHT22;42288;52.182;21.156;2023-08-01T06:02:00;20.30;99.90
16980;DHT22;42288;52.182;21.156;2023-08-01T06:04:25;20.40;99.90
16980;DHT22;42288;52.182;21.156;2023-08-01T06:06:51;20.50;99.90
16980;DHT22;42288;52.182;21.156;2023-08-01T06:09:16;20.60;99.90
16980;DHT22;42288;52.182;21.156;2023-08-01T06:11:42;20.60;99.90
16980;DHT22;42288;52.182;21.156;2023-08-01T06:14:09;20.70;99.90
16980;DHT22;42288;52.182;21.156;2023-08-01T06:16:35;20.70;99.90
16980;DHT22;42288;52.182;21.156;2023-08-01T06:19:00;20.70;99.90
16980;DHT22;42288;52.182;21.156;2023-08-01T06:21:26;20.90;99.90
16980;DHT22;42288;52.182;21.156;2023-08-01T06:23:51;20.90;99.90
16980;DHT22;42288;52.182;21.156;2023-08-01T06:26:17;21.10;99.90
16980;DHT22;42288;52.182;21.156;2023-08-01T06:28:42;21.10;99.90
16980;DHT22;42288;52.182;21.156;2023-08-01T06:31:08;21.10;99.90
16980;DHT22;42288;52.182;21.156;2023-08-01T06:33:34;21.20;99.90
16980;DHT22;42288;52.182;21.156;2023-08-01T06:35:59;21.20;99.90
16980;DHT22;42288;52.182;21.156;2023-08-01T06:38:25;21.20;99.90
16980;DHT22;42288;52.182;21.156;2023-08-01T06:40:50;21.20;99.90
16980;DHT22;42288;52.182;21.156;2023-08-01T06:43:16;21.20;99.90
16980;DHT22;42288;52.182;21.156;2023-08-01T06:45:41;21.30;99.90
16980;DHT22;42288;52.182;21.156;2023-08-01T06:48:07;21.50;99.90
16980;DHT22;42288;52.182;21.156;2023-08-01T06:50:34;21.50;99.90
16980;DHT22;42288;52.182;21.156;2023-08-01T06:52:59;21.60;99.90
16980;DHT22;42288;52.182;21.156;2023-08-01T06:55:26;21.60;99.90
16980;DHT22;42288;52.182;21.156;2023-08-01T06:57:52;21.50;99.90
16980;DHT22;42288;52.182;21.156;2023-08-01T07:00:17;21.60;99.90
16980;DHT22;42288;52.182;21.156;2023-08-01T07:02:43;21.70;99.90
16980;DHT22;42288;52.182;21.156;2023-08-01T07:05:09;21.80;99.90
16980;DHT22;42288;52.182;21.156;2023-08-01T07:07:34;21.80;99.90
16980;DHT22;42288;52.182;21.156;2023-08-01T07:10:00;21.90;99.90
16980;DHT22;42288;52.182;21.156;2023-08-01T07:12:25;22.00;99.90
16980;DHT22;42288;52.182;21.156;2023-08-01T07:14:51;22.10;99.50
16980;DHT22;42288;52.182;21.156;2023-08-01T07:17:17;22.10;99.80
16980;DHT22;42288;52.182;21.156;2023-08-01T07:19:42;22.20;99.90
16980;DHT22;42288;52.182;21.156;2023-08-01T07:22:08;22.30;99.70
16980;DHT22;42288;52.182;21.156;2023-08-01T07:24:34;22.40;99.60
16980;DHT22;42288;52.182;21.156;2023-08-01T07:27:00;22.50;99.50
16980;DHT22;42288;52.182;21.156;2023-08-01T07:29:25;22.60;99.40
16980;DHT22;42288;52.182;21.156;2023-08-01T07:31:51;22.70;99.60
16980;DHT22;42288;52.182;21.156;2023-08-01T07:34:16;22.80;99.70
16980;DHT22;42288;52.182;21.156;2023-08-01T07:36:42;22.90;99.70
16980;DHT22;42288;52.182;21.156;2023-08-01T07:39:08;23.00;99.30
16980;DHT22;42288;52.182;21.156;2023-08-01T07:41:33;23.00;99.10
16980;DHT22;42288;52.182;21.156;2023-08-01T07:44:01;23.10;98.90
16980;DHT22;42288;52.182;21.156;2023-08-01T07:46:28;23.10;98.90
16980;DHT22;42288;52.182;21.156;2023-08-01T07:48:54;23.20;98.70
16980;DHT22;42288;52.182;21.156;2023-08-01T07:51:20;23.30;98.80
16980;DHT22;42288;52.182;21.156;2023-08-01T07:53:45;23.40;98.80
16980;DHT22;42288;52.182;21.156;2023-08-01T07:56:11;23.50;98.10
16980;DHT22;42288;52.182;21.156;2023-08-01T07:58:36;23.60;98.60
16980;DHT22;42288;52.182;21.156;2023-08-01T08:01:03;23.70;98.70
16980;DHT22;42288;52.182;21.156;2023-08-01T08:03:29;23.80;98.60
16980;DHT22;42288;52.182;21.156;2023-08-01T08:05:55;23.80;98.30
16980;DHT22;42288;52.182;21.156;2023-08-01T08:08:21;24.00;98.70
16980;DHT22;42288;52.182;21.156;2023-08-01T08:10:46;24.20;98.50
16980;DHT22;42288;52.182;21.156;2023-08-01T08:13:12;24.30;98.50
16980;DHT22;42288;52.182;21.156;2023-08-01T08:15:38;24.40;98.00
16980;DHT22;42288;52.182;21.156;2023-08-01T08:18:03;24.50;97.60
16980;DHT22;42288;52.182;21.156;2023-08-01T08:20:31;24.60;97.60
16980;DHT22;42288;52.182;21.156;2023-08-01T08:22:57;24.60;97.00
16980;DHT22;42288;52.182;21.156;2023-08-01T08:25:22;24.70;97.20
16980;DHT22;42288;52.182;21.156;2023-08-01T08:27:51;24.60;95.90
16980;DHT22;42288;52.182;21.156;2023-08-01T08:30:16;24.70;96.50
16980;DHT22;42288;52.182;21.156;2023-08-01T08:32:42;24.80;96.80
16980;DHT22;42288;52.182;21.156;2023-08-01T08:35:08;24.80;96.50
16980;DHT22;42288;52.182;21.156;2023-08-01T08:37:33;24.90;97.10
16980;DHT22;42288;52.182;21.156;2023-08-01T08:39:59;24.90;96.40
16980;DHT22;42288;52.182;21.156;2023-08-01T08:42:25;24.80;95.60
16980;DHT22;42288;52.182;21.156;2023-08-01T08:44:54;24.80;96.40
16980;DHT22;42288;52.182;21.156;2023-08-01T08:47:25;24.70;96.40
16980;DHT22;42288;52.182;21.156;2023-08-01T08:49:51;24.60;96.30
16980;DHT22;42288;52.182;21.156;2023-08-01T08:52:18;24.40;96.10
16980;DHT22;42288;52.182;21.156;2023-08-01T08:54:45;24.40;96.40
16980;DHT22;42288;52.182;21.156;2023-08-01T08:57:11;24.40;96.50
16980;DHT22;42288;52.182;21.156;2023-08-01T08:59:37;24.40;96.50
16980;DHT22;42288;52.182;21.156;2023-08-01T09:02:03;24.30;96.30
16980;DHT22;42288;52.182;21.156;2023-08-01T09:04:31;24.20;96.10
16980;DHT22;42288;52.182;21.156;2023-08-01T09:07:04;24.20;96.30
16980;DHT22;42288;52.182;21.156;2023-08-01T09:09:31;24.20;96.60
16980;DHT22;42288;52.182;21.156;2023-08-01T09:11:58;24.20;96.50
16980;DHT22;42288;52.182;21.156;2023-08-01T09:14:24;24.20;96.90
16980;DHT22;42288;52.182;21.156;2023-08-01T09:16:49;24.30;97.10
16980;DHT22;42288;52.182;21.156;2023-08-01T09:19:20;24.30;96.70
16980;DHT22;42288;52.182;21.156;2023-08-01T09:21:47;24.20;96.60
16980;DHT22;42288;52.182;21.156;2023-08-01T09:24:14;24.10;96.30
16980;DHT22;42288;52.182;21.156;2023-08-01T09:26:41;24.20;96.50
16980;DHT22;42288;52.182;21.156;2023-08-01T09:29:07;24.10;96.90
16980;DHT22;42288;52.182;21.156;2023-08-01T09:31:35;24.10;97.50
16980;DHT22;42288;52.182;21.156;2023-08-01T09:34:02;24.00;97.10
16980;DHT22;42288;52.182;21.156;2023-08-01T09:36:30;24.20;97.30
16980;DHT22;42288;52.182;21.156;2023-08-01T09:39:01;24.20;96.70
16980;DHT22;42288;52.182;21.156;2023-08-01T09:41:29;24.30;96.30
16980;DHT22;42288;52.182;21.156;2023-08-01T09:43:55;24.40;96.50
16980;DHT22;42288;52.182;21.156;2023-08-01T09:46:20;24.40;96.80
16980;DHT22;42288;52.182;21.156;2023-08-01T09:48:46;24.60;97.10
16980;DHT22;42288;52.182;21.156;2023-08-01T09:51:14;24.70;97.00
16980;DHT22;42288;52.182;21.156;2023-08-01T09:53:55;24.80;96.90
16980;DHT22;42288;52.182;21.156;2023-08-01T09:56:23;24.60;96.70
16980;DHT22;42288;52.182;21.156;2023-08-01T09:58:50;24.60;97.00
16980;DHT22;42288;52.182;21.156;2023-08-01T10:01:18;24.60;96.60
16980;DHT22;42288;52.182;21.156;2023-08-01T10:03:46;24.70;96.60
16980;DHT22;42288;52.182;21.156;2023-08-01T10:06:24;24.90;97.50
16980;DHT22;42288;52.182;21.156;2023-08-01T10:08:53;24.90;96.20
16980;DHT22;42288;52.182;21.156;2023-08-01T10:11:21;24.80;95.50
16980;DHT22;42288;52.182;21.156;2023-08-01T10:13:47;24.80;95.10
16980;DHT22;42288;52.182;21.156;2023-08-01T10:16:14;24.80;95.00
16980;DHT22;42288;52.182;21.156;2023-08-01T10:18:39;24.80;94.80
16980;DHT22;42288;52.182;21.156;2023-08-01T10:21:11;24.80;95.00
16980;DHT22;42288;52.182;21.156;2023-08-01T10:23:37;24.80;95.20
16980;DHT22;42288;52.182;21.156;2023-08-01T10:26:05;24.80;95.50
16980;DHT22;42288;52.182;21.156;2023-08-01T10:28:40;24.70;95.30
16980;DHT22;42288;52.182;21.156;2023-08-01T10:31:10;24.70;95.80
16980;DHT22;42288;52.182;21.156;2023-08-01T10:33:40;24.50;95.50
16980;DHT22;42288;52.182;21.156;2023-08-01T10:38:47;24.20;96.30
16980;DHT22;42288;52.182;21.156;2023-08-01T10:41:20;24.00;96.90
16980;DHT22;42288;52.182;21.156;2023-08-01T10:43:46;23.90;98.10
16980;DHT22;42288;52.182;21.156;2023-08-01T10:46:11;23.70;98.70
16980;DHT22;42288;52.182;21.156;2023-08-01T10:48:51;23.60;99.00
16980;DHT22;42288;52.182;21.156;2023-08-01T10:51:17;23.50;99.70
16980;DHT22;42288;52.182;21.156;2023-08-01T10:53:42;23.50;99.90
16980;DHT22;42288;52.182;21.156;2023-08-01T10:56:15;23.50;99.90
16980;DHT22;42288;52.182;21.156;2023-08-01T10:58:41;23.40;99.90
16980;DHT22;42288;52.182;21.156;2023-08-01T11:01:07;23.30;99.90
16980;DHT22;42288;52.182;21.156;2023-08-01T11:03:39;23.20;99.90
16980;DHT22;42288;52.182;21.156;2023-08-01T11:06:05;23.20;99.90
16980;DHT22;42288;52.182;21.156;2023-08-01T11:08:35;23.10;99.90
16980;DHT22;42288;52.182;21.156;2023-08-01T11:11:02;23.00;99.90
16980;DHT22;42288;52.182;21.156;2023-08-01T11:13:28;23.00;99.90
16980;DHT22;42288;52.182;21.156;2023-08-01T11:15:54;23.10;99.90
16980;DHT22;42288;52.182;21.156;2023-08-01T11:18:21;23.10;99.90
16980;DHT22;42288;52.182;21.156;2023-08-01T11:20:47;23.10;99.90
16980;DHT22;42288;52.182;21.156;2023-08-01T11:23:12;23.00;99.90
16980;DHT22;42288;52.182;21.156;2023-08-01T11:25:40;23.00;99.90
16980;DHT22;42288;52.182;21.156;2023-08-01T11:28:08;23.10;99.90
16980;DHT22;42288;52.182;21.156;2023-08-01T11:30:34;23.10;99.90
16980;DHT22;42288;52.182;21.156;2023-08-01T11:33:00;23.10;99.90
16980;DHT22;42288;52.182;21.156;2023-08-01T11:35:26;23.10;99.90
16980;DHT22;42288;52.182;21.156;2023-08-01T11:37:52;22.90;99.90
16980;DHT22;42288;52.182;21.156;2023-08-01T11:40:18;22.90;99.90
16980;DHT22;42288;52.182;21.156;2023-08-01T11:42:49;22.90;99.90
16980;DHT22;42288;52.182;21.156;2023-08-01T11:45:16;22.90;99.90
16980;DHT22;42288;52.182;21.156;2023-08-01T11:47:47;22.90;99.90
16980;DHT22;42288;52.182;21.156;2023-08-01T11:50:13;22.80;99.90
16980;DHT22;42288;52.182;21.156;2023-08-01T11:52:39;22.70;99.90
16980;DHT22;42288;52.182;21.156;2023-08-01T11:55:05;22.80;99.90
16980;DHT22;42288;52.182;21.156;2023-08-01T11:57:31;22.70;99.90
16980;DHT22;42288;52.182;21.156;2023-08-01T11:59:57;22.80;99.90
16980;DHT22;42288;52.182;21.156;2023-08-01T12:02:27;22.90;99.90
16980;DHT22;42288;52.182;21.156;2023-08-01T12:04:53;23.00;99.90
16980;DHT22;42288;52.182;21.156;2023-08-01T12:07:20;23.10;99.90
16980;DHT22;42288;52.182;21.156;2023-08-01T12:09:59;23.20;99.90
16980;DHT22;42288;52.182;21.156;2023-08-01T12:12:29;23.30;99.90
16980;DHT22;42288;52.182;21.156;2023-08-01T12:14:54;23.40;99.90
16980;DHT22;42288;52.182;21.156;2023-08-01T12:17:21;23.40;99.90
16980;DHT22;42288;52.182;21.156;2023-08-01T12:19:47;23.40;99.90
16980;DHT22;42288;52.182;21.156;2023-08-01T12:22:13;23.40;99.90
16980;DHT22;42288;52.182;21.156;2023-08-01T12:24:40;23.40;99.90
16980;DHT22;42288;52.182;21.156;2023-08-01T12:27:09;23.50;99.90
16980;DHT22;42288;52.182;21.156;2023-08-01T12:29:35;23.50;99.90
16980;DHT22;42288;52.182;21.156;2023-08-01T12:32:02;23.50;99.90
16980;DHT22;42288;52.182;21.156;2023-08-01T12:34:28;23.60;99.90
16980;DHT22;42288;52.182;21.156;2023-08-01T12:36:53;23.60;99.90
16980;DHT22;42288;52.182;21.156;2023-08-01T12:39:19;23.70;99.90
16980;DHT22;42288;52.182;21.156;2023-08-01T12:41:45;23.70;99.90
16980;DHT22;42288;52.182;21.156;2023-08-01T12:44:10;23.50;99.90
16980;DHT22;42288;52.182;21.156;2023-08-01T12:46:36;23.50;99.90
16980;DHT22;42288;52.182;21.156;2023-08-01T12:49:01;23.40;99.90
16980;DHT22;42288;52.182;21.156;2023-08-01T12:51:28;23.20;99.90
16980;DHT22;42288;52.182;21.156;2023-08-01T12:53:53;23.20;99.90
16980;DHT22;42288;52.182;21.156;2023-08-01T12:56:19;23.20;99.90
16980;DHT22;42288;52.182;21.156;2023-08-01T12:58:44;23.10;99.90
16980;DHT22;42288;52.182;21.156;2023-08-01T13:01:10;23.20;99.90
16980;DHT22;42288;52.182;21.156;2023-08-01T13:03:35;23.30;99.90
16980;DHT22;42288;52.182;21.156;2023-08-01T13:06:01;23.40;99.90
16980;DHT22;42288;52.182;21.156;2023-08-01T13:08:27;23.30;99.90
16980;DHT22;42288;52.182;21.156;2023-08-01T13:10:54;23.40;99.90
16980;DHT22;42288;52.182;21.156;2023-08-01T13:13:19;23.50;99.90
16980;DHT22;42288;52.182;21.156;2023-08-01T13:15:45;23.50;99.90
16980;DHT22;42288;52.182;21.156;2023-08-01T13:18:11;23.60;99.90
16980;DHT22;42288;52.182;21.156;2023-08-01T13:20:36;23.70;99.90
16980;DHT22;42288;52.182;21.156;2023-08-01T13:23:02;23.80;99.90
16980;DHT22;42288;52.182;21.156;2023-08-01T13:25:28;23.90;99.90
16980;DHT22;42288;52.182;21.156;2023-08-01T13:27:54;23.90;99.90
16980;DHT22;42288;52.182;21.156;2023-08-01T13:30:19;23.90;99.90
16980;DHT22;42288;52.182;21.156;2023-08-01T13:32:45;23.90;99.90
16980;DHT22;42288;52.182;21.156;2023-08-01T13:35:11;24.00;99.90
16980;DHT22;42288;52.182;21.156;2023-08-01T13:37:37;24.00;99.90
16980;DHT22;42288;52.182;21.156;2023-08-01T13:40:03;23.90;99.90
16980;DHT22;42288;52.182;21.156;2023-08-01T13:42:29;23.80;99.90
16980;DHT22;42288;52.182;21.156;2023-08-01T13:44:55;23.90;99.90
16980;DHT22;42288;52.182;21.156;2023-08-01T13:47:21;23.80;99.90
16980;DHT22;42288;52.182;21.156;2023-08-01T13:49:47;23.90;99.90
16980;DHT22;42288;52.182;21.156;2023-08-01T13:52:12;23.80;99.90
16980;DHT22;42288;52.182;21.156;2023-08-01T13:54:38;23.80;99.90
16980;DHT22;42288;52.182;21.156;2023-08-01T13:57:04;23.80;99.90
16980;DHT22;42288;52.182;21.156;2023-08-01T13:59:29;23.60;99.90
16980;DHT22;42288;52.182;21.156;2023-08-01T14:01:56;23.70;99.90
16980;DHT22;42288;52.182;21.156;2023-08-01T14:04:22;23.70;99.90
16980;DHT22;42288;52.182;21.156;2023-08-01T14:06:48;23.60;99.90
16980;DHT22;42288;52.182;21.156;2023-08-01T14:09:14;23.50;99.90
16980;DHT22;42288;52.182;21.156;2023-08-01T14:11:40;23.40;99.90
16980;DHT22;42288;52.182;21.156;2023-08-01T14:14:06;23.30;99.90
16980;DHT22;42288;52.182;21.156;2023-08-01T14:16:32;23.20;99.90
16980;DHT22;42288;52.182;21.156;2023-08-01T14:18:58;22.90;99.90
16980;DHT22;42288;52.182;21.156;2023-08-01T14:21:24;22.80;99.90
16980;DHT22;42288;52.182;21.156;2023-08-01T14:23:49;22.80;99.90
16980;DHT22;42288;52.182;21.156;2023-08-01T14:26:15;22.70;99.90
16980;DHT22;42288;52.182;21.156;2023-08-01T14:28:41;22.60;99.90
16980;DHT22;42288;52.182;21.156;2023-08-01T14:31:06;22.70;99.90
16980;DHT22;42288;52.182;21.156;2023-08-01T14:33:33;22.80;99.90
16980;DHT22;42288;52.182;21.156;2023-08-01T14:35:58;22.90;99.90
16980;DHT22;42288;52.182;21.156;2023-08-01T14:38:24;22.90;99.90
16980;DHT22;42288;52.182;21.156;2023-08-01T14:40:51;23.00;99.90
16980;DHT22;42288;52.182;21.156;2023-08-01T14:43:17;23.10;99.90
16980;DHT22;42288;52.182;21.156;2023-08-01T14:45:42;23.10;99.90
16980;DHT22;42288;52.182;21.156;2023-08-01T14:48:08;23.10;99.90
16980;DHT22;42288;52.182;21.156;2023-08-01T14:50:34;23.10;99.90
16980;DHT22;42288;52.182;21.156;2023-08-01T14:53:00;23.00;99.90
16980;DHT22;42288;52.182;21.156;2023-08-01T14:55:28;22.90;99.90
16980;DHT22;42288;52.182;21.156;2023-08-01T14:57:54;22.80;99.90
16980;DHT22;42288;52.182;21.156;2023-08-01T15:00:20;22.80;99.90
16980;DHT22;42288;52.182;21.156;2023-08-01T15:02:46;22.70;99.90
16980;DHT22;42288;52.182;21.156;2023-08-01T15:05:12;22.60;99.90
16980;DHT22;42288;52.182;21.156;2023-08-01T15:07:38;22.40;99.90
16980;DHT22;42288;52.182;21.156;2023-08-01T15:10:04;22.10;99.90
16980;DHT22;42288;52.182;21.156;2023-08-01T15:12:29;21.60;99.90